sensor_id;sensor_type;location;lat;lon;timestamp;pressure;altitude;pressure_sealevel;temperature;humidity
50774;BME280;36745;48.544;8.918;2023-04-09T00:03:15;97984.41;;;5.39;81.62
50774;BME280;36745;48.544;8.918;2023-04-09T00:06:35;97978.94;;;5.39;81.95
50774;BME280;36745;48.544;8.918;2023-04-09T00:09:54;97979.31;;;5.41;82.68
50774;BME280;36745;48.544;8.918;2023-04-09T00:13:15;97986.34;;;5.42;82.12
50774;BME280;36745;48.544;8.918;2023-04-09T00:16:34;97977.75;;;5.40;83.04
50774;BME280;36745;48.544;8.918;2023-04-09T00:19:54;97980.09;;;5.45;82.94
50774;BME280;36745;48.544;8.918;2023-04-09T00:23:14;97984.81;;;5.48;83.12
50774;BME280;36745;48.544;8.918;2023-04-09T00:26:34;97967.22;;;5.49;83.30
50774;BME280;36745;48.544;8.918;2023-04-09T00:29:54;97978.56;;;5.55;82.88
50774;BME280;36745;48.544;8.918;2023-04-09T00:33:14;97973.88;;;5.48;83.36
50774;BME280;36745;48.544;8.918;2023-04-09T00:36:34;97978.16;;;5.49;83.45
50774;BME280;36745;48.544;8.918;2023-04-09T00:39:54;97968.78;;;5.51;83.87
50774;BME280;36745;48.544;8.918;2023-04-09T00:43:14;97963.69;;;5.53;84.15
50774;BME280;36745;48.544;8.918;2023-04-09T00:46:34;97964.88;;;5.55;84.44
50774;BME280;36745;48.544;8.918;2023-04-09T00:49:54;97966.81;;;5.58;84.72
50774;BME280;36745;48.544;8.918;2023-04-09T00:53:15;97954.34;;;5.61;85.03
50774;BME280;36745;48.544;8.918;2023-04-09T00:56:36;97969.16;;;5.70;85.06
50774;BME280;36745;48.544;8.918;2023-04-09T00:59:55;97967.97;;;5.68;84.71
50774;BME280;36745;48.544;8.918;2023-04-09T01:03:15;97969.16;;;5.74;84.52
50774;BME280;36745;48.544;8.918;2023-04-09T01:06:54;97974.63;;;5.74;84.64
50774;BME280;36745;48.544;8.918;2023-04-09T01:10:37;97970.72;;;5.75;84.57
50774;BME280;36745;48.544;8.918;2023-04-09T01:17:37;97975.03;;;5.76;84.31
50774;BME280;36745;48.544;8.918;2023-04-09T01:24:43;97971.53;;;5.65;85.40
50774;BME280;36745;48.544;8.918;2023-04-09T01:28:13;97970.34;;;5.66;85.81
50774;BME280;36745;48.544;8.918;2023-04-09T01:31:37;97967.63;;;5.66;86.19
50774;BME280;36745;48.544;8.918;2023-04-09T01:34:57;97967.59;;;5.62;86.42
50774;BME280;36745;48.544;8.918;2023-04-09T01:38:18;97970.72;;;5.64;86.61
50774;BME280;36745;48.544;8.918;2023-04-09T01:41:39;97977.00;;;5.72;86.20
50774;BME280;36745;48.544;8.918;2023-04-09T01:45:00;97976.19;;;5.75;86.20
50774;BME280;36745;48.544;8.918;2023-04-09T01:48:22;97972.28;;;5.79;86.82
50774;BME280;36745;48.544;8.918;2023-04-09T01:51:42;97976.19;;;5.85;85.86
50774;BME280;36745;48.544;8.918;2023-04-09T01:55:02;97975.03;;;5.83;85.87
50774;BME280;36745;48.544;8.918;2023-04-09T01:58:23;97975.41;;;5.78;86.31
50774;BME280;36745;48.544;8.918;2023-04-09T02:01:45;97971.50;;;5.75;86.75
50774;BME280;36745;48.544;8.918;2023-04-09T02:05:08;97977.75;;;5.83;86.96
50774;BME280;36745;48.544;8.918;2023-04-09T02:08:32;97977.75;;;5.79;87.00
50774;BME280;36745;48.544;8.918;2023-04-09T02:11:57;97980.09;;;5.81;87.24
50774;BME280;36745;48.544;8.918;2023-04-09T02:15:19;97972.28;;;5.76;86.63
50774;BME280;36745;48.544;8.918;2023-04-09T02:18:40;97968.38;;;5.77;87.18
50774;BME280;36745;48.544;8.918;2023-04-09T02:22:03;97964.47;;;5.71;87.29
50774;BME280;36745;48.544;8.918;2023-04-09T02:25:23;97965.25;;;5.64;87.78
50774;BME280;36745;48.544;8.918;2023-04-09T02:28:43;97966.81;;;5.76;87.70
50774;BME280;36745;48.544;8.918;2023-04-09T02:32:03;97956.66;;;5.80;87.65
50774;BME280;36745;48.544;8.918;2023-04-09T02:35:23;97955.09;;;5.82;87.40
50774;BME280;36745;48.544;8.918;2023-04-09T02:38:43;97959.00;;;5.81;87.45
50774;BME280;36745;48.544;8.918;2023-04-09T02:42:02;97968.75;;;5.79;87.27
50774;BME280;36745;48.544;8.918;2023-04-09T02:45:22;97968.38;;;5.70;87.75
50774;BME280;36745;48.544;8.918;2023-04-09T02:48:42;97967.63;;;5.66;87.38
50774;BME280;36745;48.544;8.918;2023-04-09T02:52:02;97971.50;;;5.58;87.72
50774;BME280;36745;48.544;8.918;2023-04-09T02:55:22;97963.31;;;5.58;88.05
50774;BME280;36745;48.544;8.918;2023-04-09T02:58:41;97967.59;;;5.59;88.14
50774;BME280;36745;48.544;8.918;2023-04-09T03:02:01;97966.84;;;5.55;88.27
50774;BME280;36745;48.544;8.918;2023-04-09T03:05:21;97962.94;;;5.48;88.40
50774;BME280;36745;48.544;8.918;2023-04-09T03:08:41;97958.25;;;5.49;88.30
50774;BME280;36745;48.544;8.918;2023-04-09T03:12:01;97956.69;;;5.44;88.19
50774;BME280;36745;48.544;8.918;2023-04-09T03:15:20;97951.22;;;5.37;88.82
50774;BME280;36745;48.544;8.918;2023-04-09T03:18:40;97955.09;;;5.29;88.66
50774;BME280;36745;48.544;8.918;2023-04-09T03:22:00;97948.84;;;5.25;88.95
50774;BME280;36745;48.544;8.918;2023-04-09T03:25:20;97946.91;;;5.22;88.83
50774;BME280;36745;48.544;8.918;2023-04-09T03:28:40;97952.75;;;5.24;88.47
50774;BME280;36745;48.544;8.918;2023-04-09T03:32:00;97941.03;;;5.13;88.26
50774;BME280;36745;48.544;8.918;2023-04-09T03:35:19;97937.13;;;5.00;88.48
50774;BME280;36745;48.544;8.918;2023-04-09T03:38:39;97935.53;;;4.92;88.59
50774;BME280;36745;48.544;8.918;2023-04-09T03:41:59;97937.88;;;4.83;88.81
50774;BME280;36745;48.544;8.918;2023-04-09T03:45:19;97943.31;;;4.86;89.31
50774;BME280;36745;48.544;8.918;2023-04-09T03:48:39;97944.13;;;4.83;89.26
50774;BME280;36745;48.544;8.918;2023-04-09T03:51:59;97944.91;;;4.84;89.11
50774;BME280;36745;48.544;8.918;2023-04-09T03:55:19;97940.97;;;4.78;89.19
50774;BME280;36745;48.544;8.918;2023-04-09T03:58:39;97948.75;;;4.76;89.10
50774;BME280;36745;48.544;8.918;2023-04-09T04:01:59;97941.75;;;4.68;89.32
50774;BME280;36745;48.544;8.918;2023-04-09T04:05:22;97949.16;;;4.63;89.55
50774;BME280;36745;48.544;8.918;2023-04-09T04:08:41;97946.38;;;4.60;89.69
50774;BME280;36745;48.544;8.918;2023-04-09T04:12:03;97946.78;;;4.65;89.70
50774;BME280;36745;48.544;8.918;2023-04-09T04:15:23;97951.50;;;4.69;89.83
50774;BME280;36745;48.544;8.918;2023-04-09T04:18:43;97952.25;;;4.65;89.80
50774;BME280;36745;48.544;8.918;2023-04-09T04:22:02;97954.97;;;4.62;90.12
50774;BME280;36745;48.544;8.918;2023-04-09T04:25:22;97950.69;;;4.57;90.40
50774;BME280;36745;48.544;8.918;2023-04-09T04:28:42;97953.41;;;4.61;90.73
50774;BME280;36745;48.544;8.918;2023-04-09T04:32:02;97948.75;;;4.61;91.08
50774;BME280;36745;48.544;8.918;2023-04-09T04:35:22;97952.66;;;4.68;91.02
50774;BME280;36745;48.544;8.918;2023-04-09T04:38:42;97956.19;;;4.72;90.75
50774;BME280;36745;48.544;8.918;2023-04-09T04:42:02;97953.44;;;4.72;90.90
50774;BME280;36745;48.544;8.918;2023-04-09T04:45:21;97958.13;;;4.71;90.88
50774;BME280;36745;48.544;8.918;2023-04-09T04:48:41;97954.22;;;4.69;90.86
50774;BME280;36745;48.544;8.918;2023-04-09T04:52:01;97958.91;;;4.72;91.75
50774;BME280;36745;48.544;8.918;2023-04-09T04:55:21;97964.00;;;4.70;91.41
50774;BME280;36745;48.544;8.918;2023-04-09T04:58:41;97961.22;;;4.66;91.72
50774;BME280;36745;48.544;8.918;2023-04-09T05:02:01;97962.41;;;4.76;92.43
50774;BME280;36745;48.544;8.918;2023-04-09T05:05:21;97960.91;;;4.85;92.00
50774;BME280;36745;48.544;8.918;2023-04-09T05:08:40;97955.44;;;4.85;91.60
50774;BME280;36745;48.544;8.918;2023-04-09T05:12:00;97958.19;;;4.89;92.08
50774;BME280;36745;48.544;8.918;2023-04-09T05:15:21;97964.44;;;4.86;91.70
50774;BME280;36745;48.544;8.918;2023-04-09T05:18:41;97961.28;;;4.87;92.52
50774;BME280;36745;48.544;8.918;2023-04-09T05:22:00;97964.41;;;4.93;92.77
50774;BME280;36745;48.544;8.918;2023-04-09T05:25:20;97966.78;;;4.98;92.94
50774;BME280;36745;48.544;8.918;2023-04-09T05:28:40;97969.94;;;5.07;92.65
50774;BME280;36745;48.544;8.918;2023-04-09T05:31:59;97973.44;;;5.11;92.31
50774;BME280;36745;48.544;8.918;2023-04-09T05:35:19;97966.03;;;5.19;92.00
50774;BME280;36745;48.544;8.918;2023-04-09T05:38:39;97974.25;;;5.22;92.25
50774;BME280;36745;48.544;8.918;2023-04-09T05:41:59;97973.47;;;5.18;92.65
50774;BME280;36745;48.544;8.918;2023-04-09T05:45:19;97972.28;;;5.26;93.13
50774;BME280;36745;48.544;8.918;2023-04-09T05:48:39;97971.50;;;5.29;92.94
50774;BME280;36745;48.544;8.918;2023-04-09T05:51:58;97981.69;;;5.43;92.93
50774;BME280;36745;48.544;8.918;2023-04-09T05:55:18;97980.88;;;5.64;93.40
50774;BME280;36745;48.544;8.918;2023-04-09T05:58:38;97978.13;;;5.85;92.40
50774;BME280;36745;48.544;8.918;2023-04-09T06:01:58;97981.66;;;5.82;91.71
50774;BME280;36745;48.544;8.918;2023-04-09T06:05:18;97971.50;;;5.79;91.58
50774;BME280;36745;48.544;8.918;2023-04-09T06:08:38;97969.97;;;5.71;91.43
50774;BME280;36745;48.544;8.918;2023-04-09T06:11:57;97973.84;;;5.70;91.98
50774;BME280;36745;48.544;8.918;2023-04-09T06:15:17;97985.59;;;5.88;92.17
50774;BME280;36745;48.544;8.918;2023-04-09T06:18:37;97973.03;;;6.12;93.30
50774;BME280;36745;48.544;8.918;2023-04-09T06:21:57;97965.66;;;6.92;94.51
50774;BME280;36745;48.544;8.918;2023-04-09T06:25:17;97970.53;;;7.29;91.45
50774;BME280;36745;48.544;8.918;2023-04-09T06:28:37;97965.50;;;7.21;89.84
50774;BME280;36745;48.544;8.918;2023-04-09T06:31:57;97969.16;;;7.55;90.89
50774;BME280;36745;48.544;8.918;2023-04-09T06:35:17;97970.56;;;7.77;89.85
50774;BME280;36745;48.544;8.918;2023-04-09T06:38:36;97972.00;;;7.89;88.94
50774;BME280;36745;48.544;8.918;2023-04-09T06:41:56;97962.38;;;8.11;88.57
50774;BME280;36745;48.544;8.918;2023-04-09T06:45:16;97973.59;;;8.31;87.46
50774;BME280;36745;48.544;8.918;2023-04-09T06:48:36;97980.66;;;8.62;86.89
50774;BME280;36745;48.544;8.918;2023-04-09T06:51:56;97975.63;;;8.88;86.55
50774;BME280;36745;48.544;8.918;2023-04-09T06:55:16;97968.28;;;9.08;85.58
50774;BME280;36745;48.544;8.918;2023-04-09T06:58:36;97966.63;;;9.14;84.72
50774;BME280;36745;48.544;8.918;2023-04-09T07:01:55;97970.22;;;9.11;83.55
50774;BME280;36745;48.544;8.918;2023-04-09T07:05:15;97979.19;;;9.15;83.43
50774;BME280;36745;48.544;8.918;2023-04-09T07:08:35;97974.41;;;9.19;82.12
50774;BME280;36745;48.544;8.918;2023-04-09T07:11:55;97980.28;;;9.48;82.80
50774;BME280;36745;48.544;8.918;2023-04-09T07:15:15;97983.34;;;9.53;81.60
50774;BME280;36745;48.544;8.918;2023-04-09T07:18:35;97979.59;;;9.40;80.59
50774;BME280;36745;48.544;8.918;2023-04-09T07:21:54;97985.38;;;9.49;79.97
50774;BME280;36745;48.544;8.918;2023-04-09T07:25:15;97983.09;;;9.44;78.14
50774;BME280;36745;48.544;8.918;2023-04-09T07:28:34;97979.81;;;9.26;79.28
50774;BME280;36745;48.544;8.918;2023-04-09T07:31:54;97992.94;;;9.42;78.48
50774;BME280;36745;48.544;8.918;2023-04-09T07:35:14;97986.31;;;9.62;78.50
50774;BME280;36745;48.544;8.918;2023-04-09T07:38:34;97992.69;;;9.59;76.46
50774;BME280;36745;48.544;8.918;2023-04-09T07:41:53;97989.50;;;9.61;76.21
50774;BME280;36745;48.544;8.918;2023-04-09T07:45:15;97988.13;;;9.73;76.38
50774;BME280;36745;48.544;8.918;2023-04-09T07:48:35;97992.88;;;9.95;75.61
50774;BME280;36745;48.544;8.918;2023-04-09T07:51:56;98000.78;;;10.17;75.07
50774;BME280;36745;48.544;8.918;2023-04-09T07:55:16;97990.41;;;10.01;73.84
50774;BME280;36745;48.544;8.918;2023-04-09T07:58:36;97984.31;;;9.90;73.75
50774;BME280;36745;48.544;8.918;2023-04-09T08:01:56;97987.34;;;9.95;72.55
50774;BME280;36745;48.544;8.918;2023-04-09T08:05:16;97979.28;;;10.08;73.50
50774;BME280;36745;48.544;8.918;2023-04-09T08:08:35;97985.91;;;10.53;73.08
50774;BME280;36745;48.544;8.918;2023-04-09T08:11:55;97990.63;;;10.33;69.23
50774;BME280;36745;48.544;8.918;2023-04-09T08:15:15;97998.50;;;10.35;68.75
50774;BME280;36745;48.544;8.918;2023-04-09T08:18:35;97995.16;;;10.43;69.02
50774;BME280;36745;48.544;8.918;2023-04-09T08:21:55;97998.50;;;10.35;67.51
50774;BME280;36745;48.544;8.918;2023-04-09T08:25:15;97999.81;;;10.27;67.68
50774;BME280;36745;48.544;8.918;2023-04-09T08:28:35;98003.59;;;10.13;66.11
50774;BME280;36745;48.544;8.918;2023-04-09T08:31:55;98004.06;;;10.31;66.88
50774;BME280;36745;48.544;8.918;2023-04-09T08:35:15;97995.56;;;9.76;64.31
50774;BME280;36745;48.544;8.918;2023-04-09T08:38:35;97998.78;;;9.71;64.65
50774;BME280;36745;48.544;8.918;2023-04-09T08:41:57;98003.78;;;10.02;65.45
50774;BME280;36745;48.544;8.918;2023-04-09T08:45:18;98009.84;;;10.17;62.98
50774;BME280;36745;48.544;8.918;2023-04-09T08:48:40;98003.63;;;10.09;60.74
50774;BME280;36745;48.544;8.918;2023-04-09T08:52:00;98005.63;;;10.09;60.50
50774;BME280;36745;48.544;8.918;2023-04-09T08:55:20;98001.47;;;10.44;60.76
50774;BME280;36745;48.544;8.918;2023-04-09T08:58:42;98006.75;;;10.11;56.14
50774;BME280;36745;48.544;8.918;2023-04-09T09:02:07;98014.56;;;10.17;56.34
50774;BME280;36745;48.544;8.918;2023-04-09T09:05:38;98014.81;;;9.99;56.62
50774;BME280;36745;48.544;8.918;2023-04-09T09:09:14;98019.75;;;9.88;55.32
50774;BME280;36745;48.544;8.918;2023-04-09T09:12:41;98013.06;;;9.62;55.10
50774;BME280;36745;48.544;8.918;2023-04-09T09:16:12;98027.28;;;9.60;56.26
50774;BME280;36745;48.544;8.918;2023-04-09T09:19:33;98023.56;;;9.94;57.83
50774;BME280;36745;48.544;8.918;2023-04-09T09:22:54;98021.41;;;10.05;57.08
50774;BME280;36745;48.544;8.918;2023-04-09T09:26:23;98023.56;;;9.94;56.69
50774;BME280;36745;48.544;8.918;2023-04-09T09:29:44;98018.81;;;9.98;57.86
50774;BME280;36745;48.544;8.918;2023-04-09T09:33:05;98013.34;;;9.94;58.23
50774;BME280;36745;48.544;8.918;2023-04-09T09:36:32;98029.41;;;9.73;58.00
50774;BME280;36745;48.544;8.918;2023-04-09T09:39:53;98028.09;;;9.57;57.73
50774;BME280;36745;48.544;8.918;2023-04-09T09:43:14;98022.78;;;9.70;58.02
50774;BME280;36745;48.544;8.918;2023-04-09T09:46:37;98024.59;;;9.80;57.86
50774;BME280;36745;48.544;8.918;2023-04-09T09:49:56;98023.09;;;11.41;59.99
50774;BME280;36745;48.544;8.918;2023-04-09T09:53:19;98023.56;;;11.55;56.51
50774;BME280;36745;48.544;8.918;2023-04-09T09:56:41;98031.31;;;11.08;55.81
50774;BME280;36745;48.544;8.918;2023-04-09T10:00:02;98021.63;;;10.80;55.33
50774;BME280;36745;48.544;8.918;2023-04-09T10:03:25;98026.72;;;10.62;55.18
50774;BME280;36745;48.544;8.918;2023-04-09T10:06:46;98025.91;;;10.42;54.88
50774;BME280;36745;48.544;8.918;2023-04-09T10:10:07;98031.75;;;10.24;54.01
50774;BME280;36745;48.544;8.918;2023-04-09T10:13:39;98025.53;;;10.20;55.35
50774;BME280;36745;48.544;8.918;2023-04-09T10:17:00;98021.06;;;10.03;55.32
50774;BME280;36745;48.544;8.918;2023-04-09T10:20:29;98021.41;;;10.05;54.89
50774;BME280;36745;48.544;8.918;2023-04-09T10:23:50;98014.78;;;10.02;54.05
50774;BME280;36745;48.544;8.918;2023-04-09T10:27:12;98012.00;;;9.79;53.08
50774;BME280;36745;48.544;8.918;2023-04-09T10:30:33;98010.75;;;9.84;54.30
50774;BME280;36745;48.544;8.918;2023-04-09T10:34:02;98020.06;;;10.17;55.00
50774;BME280;36745;48.544;8.918;2023-04-09T10:37:24;98020.53;;;10.35;53.84
50774;BME280;36745;48.544;8.918;2023-04-09T10:40:49;98026.63;;;10.46;53.64
50774;BME280;36745;48.544;8.918;2023-04-09T10:44:24;98019.63;;;10.41;52.52
50774;BME280;36745;48.544;8.918;2023-04-09T10:47:49;98026.69;;;10.42;51.75
50774;BME280;36745;48.544;8.918;2023-04-09T10:51:18;98016.97;;;10.58;51.58
50774;BME280;36745;48.544;8.918;2023-04-09T10:54:44;98022.81;;;10.40;51.73
50774;BME280;36745;48.544;8.918;2023-04-09T10:58:05;98020.22;;;10.52;52.40
50774;BME280;36745;48.544;8.918;2023-04-09T11:01:26;98012.66;;;10.76;52.73
50774;BME280;36745;48.544;8.918;2023-04-09T11:08:30;98017.88;;;11.10;52.09
50774;BME280;36745;48.544;8.918;2023-04-09T11:11:53;98021.47;;;11.07;52.54
50774;BME280;36745;48.544;8.918;2023-04-09T11:15:17;98004.03;;;11.30;52.18
50774;BME280;36745;48.544;8.918;2023-04-09T11:18:38;98009.69;;;11.59;51.98
50774;BME280;36745;48.544;8.918;2023-04-09T11:21:57;98002.47;;;11.81;51.02
50774;BME280;36745;48.544;8.918;2023-04-09T11:25:27;97995.03;;;11.94;51.22
50774;BME280;36745;48.544;8.918;2023-04-09T11:28:48;97998.63;;;13.73;52.60
50774;BME280;36745;48.544;8.918;2023-04-09T11:32:07;98000.13;;;12.98;49.53
50774;BME280;36745;48.544;8.918;2023-04-09T11:35:28;97992.69;;;12.95;49.98
50774;BME280;36745;48.544;8.918;2023-04-09T11:38:48;97993.13;;;12.07;47.96
50774;BME280;36745;48.544;8.918;2023-04-09T11:42:13;97988.66;;;11.97;48.73
50774;BME280;36745;48.544;8.918;2023-04-09T11:45:33;97990.00;;;12.05;49.15
50774;BME280;36745;48.544;8.918;2023-04-09T11:48:53;97989.84;;;12.12;48.65
50774;BME280;36745;48.544;8.918;2023-04-09T11:52:13;97996.16;;;12.13;48.33
50774;BME280;36745;48.544;8.918;2023-04-09T11:55:34;98003.41;;;12.07;47.07
50774;BME280;36745;48.544;8.918;2023-04-09T11:58:54;97991.06;;;11.95;47.53
50774;BME280;36745;48.544;8.918;2023-04-09T12:02:16;97993.81;;;12.11;47.86
50774;BME280;36745;48.544;8.918;2023-04-09T12:05:37;97983.88;;;12.43;47.26
50774;BME280;36745;48.544;8.918;2023-04-09T12:08:58;97992.00;;;12.50;46.96
50774;BME280;36745;48.544;8.918;2023-04-09T12:12:18;97987.03;;;12.29;46.68
50774;BME280;36745;48.544;8.918;2023-04-09T12:15:40;97986.94;;;12.61;46.10
50774;BME280;36745;48.544;8.918;2023-04-09T12:19:02;97981.03;;;13.55;47.03
50774;BME280;36745;48.544;8.918;2023-04-09T12:22:24;97973.59;;;13.64;45.15
50774;BME280;36745;48.544;8.918;2023-04-09T12:25:44;97968.63;;;14.19;46.18
50774;BME280;36745;48.544;8.918;2023-04-09T12:29:05;97967.94;;;14.15;44.97
50774;BME280;36745;48.544;8.918;2023-04-09T12:32:25;97965.97;;;14.72;45.24
50774;BME280;36745;48.544;8.918;2023-04-09T12:35:46;97965.50;;;14.17;43.03
50774;BME280;36745;48.544;8.918;2023-04-09T12:39:07;97963.16;;;13.81;43.06
50774;BME280;36745;48.544;8.918;2023-04-09T12:42:27;97962.53;;;13.64;43.72
50774;BME280;36745;48.544;8.918;2023-04-09T12:45:46;97974.06;;;13.37;43.29
50774;BME280;36745;48.544;8.918;2023-04-09T12:49:06;97961.31;;;13.15;43.05
50774;BME280;36745;48.544;8.918;2023-04-09T12:52:26;97952.47;;;12.78;43.06
50774;BME280;36745;48.544;8.918;2023-04-09T12:55:46;97959.47;;;12.54;42.73
50774;BME280;36745;48.544;8.918;2023-04-09T12:59:05;97952.41;;;12.53;43.10
50774;BME280;36745;48.544;8.918;2023-04-09T13:02:25;97956.47;;;12.48;43.04
50774;BME280;36745;48.544;8.918;2023-04-09T13:05:45;97952.13;;;12.35;43.10
50774;BME280;36745;48.544;8.918;2023-04-09T13:09:05;97944.56;;;12.23;42.87
50774;BME280;36745;48.544;8.918;2023-04-09T13:12:26;97940.53;;;12.40;42.96
50774;BME280;36745;48.544;8.918;2023-04-09T13:15:46;97932.06;;;12.47;43.23
50774;BME280;36745;48.544;8.918;2023-04-09T13:19:07;97934.94;;;12.56;43.13
50774;BME280;36745;48.544;8.918;2023-04-09T13:22:27;97936.16;;;12.55;43.33
50774;BME280;36745;48.544;8.918;2023-04-09T13:25:46;97925.78;;;12.72;42.69
50774;BME280;36745;48.544;8.918;2023-04-09T13:29:06;97921.91;;;12.69;43.63
50774;BME280;36745;48.544;8.918;2023-04-09T13:32:26;97916.25;;;13.27;43.62
50774;BME280;36745;48.544;8.918;2023-04-09T13:35:47;97908.03;;;13.49;43.00
50774;BME280;36745;48.544;8.918;2023-04-09T13:39:06;97913.13;;;13.37;42.53
50774;BME280;36745;48.544;8.918;2023-04-09T13:42:26;97906.59;;;13.31;42.31
50774;BME280;36745;48.544;8.918;2023-04-09T13:45:46;97898.94;;;13.35;42.58
50774;BME280;36745;48.544;8.918;2023-04-09T13:49:07;97903.16;;;13.40;42.42
50774;BME280;36745;48.544;8.918;2023-04-09T13:52:28;97891.97;;;13.31;42.28
50774;BME280;36745;48.544;8.918;2023-04-09T13:55:47;97891.06;;;13.47;42.48
50774;BME280;36745;48.544;8.918;2023-04-09T13:59:07;97885.81;;;13.61;42.79
50774;BME280;36745;48.544;8.918;2023-04-09T14:02:27;97874.38;;;13.72;41.30
50774;BME280;36745;48.544;8.918;2023-04-09T14:05:47;97872.88;;;13.58;41.22
50774;BME280;36745;48.544;8.918;2023-04-09T14:09:08;97863.44;;;13.68;41.28
50774;BME280;36745;48.544;8.918;2023-04-09T14:12:28;97864.31;;;14.00;41.37
50774;BME280;36745;48.544;8.918;2023-04-09T14:15:47;97866.97;;;14.03;40.86
50774;BME280;36745;48.544;8.918;2023-04-09T14:19:08;97856.28;;;13.45;40.71
50774;BME280;36745;48.544;8.918;2023-04-09T14:22:28;97855.88;;;13.81;40.93
50774;BME280;36745;48.544;8.918;2023-04-09T14:25:48;97867.75;;;13.69;39.79
50774;BME280;36745;48.544;8.918;2023-04-09T14:29:08;97859.25;;;13.51;40.17
50774;BME280;36745;48.544;8.918;2023-04-09T14:32:28;97862.72;;;13.77;41.40
50774;BME280;36745;48.544;8.918;2023-04-09T14:35:47;97856.31;;;13.80;39.51
50774;BME280;36745;48.544;8.918;2023-04-09T14:39:07;97857.63;;;13.41;39.78
50774;BME280;36745;48.544;8.918;2023-04-09T14:42:27;97860.88;;;13.27;40.66
50774;BME280;36745;48.544;8.918;2023-04-09T14:45:47;97854.44;;;13.30;40.88
50774;BME280;36745;48.544;8.918;2023-04-09T14:49:07;97846.47;;;13.32;39.10
50774;BME280;36745;48.544;8.918;2023-04-09T14:52:26;97839.16;;;13.38;40.51
50774;BME280;36745;48.544;8.918;2023-04-09T14:55:48;97842.19;;;13.65;40.58
50774;BME280;36745;48.544;8.918;2023-04-09T14:59:08;97849.25;;;13.66;39.93
50774;BME280;36745;48.544;8.918;2023-04-09T15:02:28;97844.25;;;13.74;39.37
50774;BME280;36745;48.544;8.918;2023-04-09T15:05:49;97851.44;;;13.71;39.39
50774;BME280;36745;48.544;8.918;2023-04-09T15:09:08;97853.50;;;13.58;39.39
50774;BME280;36745;48.544;8.918;2023-04-09T15:12:32;97837.66;;;13.46;39.22
50774;BME280;36745;48.544;8.918;2023-04-09T15:15:51;97844.63;;;13.63;39.72
50774;BME280;36745;48.544;8.918;2023-04-09T15:19:11;97838.97;;;13.88;39.79
50774;BME280;36745;48.544;8.918;2023-04-09T15:22:31;97846.47;;;14.01;39.95
50774;BME280;36745;48.544;8.918;2023-04-09T15:25:51;97851.22;;;13.78;39.12
50774;BME280;36745;48.544;8.918;2023-04-09T15:29:11;97847.38;;;13.63;38.55
50774;BME280;36745;48.544;8.918;2023-04-09T15:32:30;97839.47;;;13.74;38.72
50774;BME280;36745;48.544;8.918;2023-04-09T15:35:50;97840.88;;;13.92;39.24
50774;BME280;36745;48.544;8.918;2023-04-09T15:39:10;97836.53;;;13.91;39.08
50774;BME280;36745;48.544;8.918;2023-04-09T15:42:30;97838.50;;;13.68;39.74
50774;BME280;36745;48.544;8.918;2023-04-09T15:45:50;97834.19;;;13.67;39.51
50774;BME280;36745;48.544;8.918;2023-04-09T15:49:10;97830.13;;;13.47;39.42
50774;BME280;36745;48.544;8.918;2023-04-09T15:52:30;97825.16;;;13.41;39.91
50774;BME280;36745;48.544;8.918;2023-04-09T15:55:50;97823.59;;;13.53;40.32
50774;BME280;36745;48.544;8.918;2023-04-09T15:59:10;97829.78;;;13.57;40.39
50774;BME280;36745;48.544;8.918;2023-04-09T16:02:29;97831.75;;;13.69;40.08
50774;BME280;36745;48.544;8.918;2023-04-09T16:05:49;97827.25;;;13.50;39.25
50774;BME280;36745;48.544;8.918;2023-04-09T16:09:09;97831.16;;;13.40;39.74
50774;BME280;36745;48.544;8.918;2023-04-09T16:12:29;97832.50;;;13.35;39.89
50774;BME280;36745;48.544;8.918;2023-04-09T16:15:48;97824.66;;;13.21;40.36
50774;BME280;36745;48.544;8.918;2023-04-09T16:19:09;97831.63;;;13.26;40.66
50774;BME280;36745;48.544;8.918;2023-04-09T16:22:29;97831.38;;;13.08;40.47
50774;BME280;36745;48.544;8.918;2023-04-09T16:25:49;97834.06;;;12.98;40.82
50774;BME280;36745;48.544;8.918;2023-04-09T16:29:09;97826.44;;;12.90;41.01
50774;BME280;36745;48.544;8.918;2023-04-09T16:32:28;97829.44;;;12.95;41.16
50774;BME280;36745;48.544;8.918;2023-04-09T16:35:48;97824.41;;;13.03;41.07
50774;BME280;36745;48.544;8.918;2023-04-09T16:39:08;97832.84;;;12.87;40.80
50774;BME280;36745;48.544;8.918;2023-04-09T16:42:29;97831.75;;;12.72;40.19
50774;BME280;36745;48.544;8.918;2023-04-09T16:45:49;97839.94;;;12.63;40.17
50774;BME280;36745;48.544;8.918;2023-04-09T16:49:10;97839.25;;;12.58;40.40
50774;BME280;36745;48.544;8.918;2023-04-09T16:52:30;97840.00;;;12.59;40.47
50774;BME280;36745;48.544;8.918;2023-04-09T16:55:50;97840.56;;;12.54;40.93
50774;BME280;36745;48.544;8.918;2023-04-09T16:59:10;97841.22;;;12.58;40.98
50774;BME280;36745;48.544;8.918;2023-04-09T17:02:30;97844.09;;;12.54;40.96
50774;BME280;36745;48.544;8.918;2023-04-09T17:05:50;97842.00;;;12.46;41.21
50774;BME280;36745;48.544;8.918;2023-04-09T17:09:10;97833.94;;;12.51;41.47
50774;BME280;36745;48.544;8.918;2023-04-09T17:12:30;97830.25;;;12.42;41.67
50774;BME280;36745;48.544;8.918;2023-04-09T17:15:50;97832.03;;;12.36;41.37
50774;BME280;36745;48.544;8.918;2023-04-09T17:19:10;97826.03;;;12.25;41.40
50774;BME280;36745;48.544;8.918;2023-04-09T17:22:30;97833.22;;;12.22;41.53
50774;BME280;36745;48.544;8.918;2023-04-09T17:25:49;97830.63;;;12.15;41.45
50774;BME280;36745;48.544;8.918;2023-04-09T17:29:09;97823.34;;;12.08;41.62
50774;BME280;36745;48.544;8.918;2023-04-09T17:32:29;97833.03;;;12.00;41.90
50774;BME280;36745;48.544;8.918;2023-04-09T17:35:49;97830.47;;;11.93;41.94
50774;BME280;36745;48.544;8.918;2023-04-09T17:39:09;97836.53;;;11.88;42.04
50774;BME280;36745;48.544;8.918;2023-04-09T17:42:29;97839.16;;;11.79;42.21
50774;BME280;36745;48.544;8.918;2023-04-09T17:50:07;97847.34;;;11.66;42.52
50774;BME280;36745;48.544;8.918;2023-04-09T17:53:26;97846.75;;;11.59;42.73
50774;BME280;36745;48.544;8.918;2023-04-09T17:56:46;97858.06;;;11.48;42.99
50774;BME280;36745;48.544;8.918;2023-04-09T18:00:07;97863.25;;;11.30;43.06
50774;BME280;36745;48.544;8.918;2023-04-09T18:03:27;97862.16;;;11.11;43.69
50774;BME280;36745;48.544;8.918;2023-04-09T18:06:46;97878.22;;;10.97;44.32